Time;durP1;ratioP1;P1;durP2;ratioP2;P2;SDS_P1;SDS_P2;PMS_P1;PMS_P2;Temp;Humidity;BMP_temperature;BMP_pressure;BME280_temperature;BME280_humidity;BME280_pressure;Samples;Min_cycle;Max_cycle;Signal;HPM_P1;HPM_P2
2021/08/18 00:01:58;;;;;;;14.03;5.83;;;;;;;13.91;89.98;100305.19;5035432;28;20211;-74
2021/08/18 00:04:24;;;;;;;10.70;5.47;;;;;;;13.90;90.23;100303.47;5053590;28;20227;-74
2021/08/18 00:06:49;;;;;;;14.03;5.83;;;;;;;13.87;90.39;100311.75;5053892;28;20180;-74
2021/08/18 00:09:14;;;;;;;14.00;6.27;;;;;;;13.88;90.42;100308.09;5053595;28;20179;-75
2021/08/18 00:11:40;;;;;;;12.73;6.23;;;;;;;13.88;90.84;100309.94;5035880;28;20687;-73
2021/08/18 00:14:05;;;;;;;14.87;6.20;;;;;;;13.85;90.96;100327.13;5054025;28;20195;-74
2021/08/18 00:16:30;;;;;;;15.00;6.70;;;;;;;13.85;90.96;100308.34;5035560;28;20188;-73
2021/08/18 00:18:56;;;;;;;13.27;6.67;;;;;;;13.88;91.07;100304.56;5052063;28;20171;-73
2021/08/18 00:21:23;;;;;;;12.53;6.03;;;;;;;13.85;91.58;100311.03;5035223;28;20206;-72
2021/08/18 00:23:49;;;;;;;14.23;7.10;;;;;;;13.82;91.35;100305.88;5035189;28;20195;-73
2021/08/18 00:26:14;;;;;;;15.97;6.50;;;;;;;13.84;91.55;100300.41;5035367;28;20198;-73
2021/08/18 00:28:40;;;;;;;13.30;6.10;;;;;;;13.81;91.50;100301.50;5053222;28;20210;-73
2021/08/18 00:31:05;;;;;;;18.57;6.87;;;;;;;13.80;91.74;100315.88;5051735;28;20265;-74
2021/08/18 00:33:31;;;;;;;13.27;6.57;;;;;;;13.77;91.35;100335.75;5051682;28;20183;-74
2021/08/18 00:35:57;;;;;;;18.73;7.43;;;;;;;13.77;91.50;100298.19;5035071;28;20233;-73
2021/08/18 00:38:22;;;;;;;14.23;6.77;;;;;;;13.75;91.61;100305.50;5051731;28;20182;-73
2021/08/18 00:40:47;;;;;;;18.23;6.67;;;;;;;13.77;91.44;100314.28;5051698;28;20176;-73
2021/08/18 00:43:16;;;;;;;16.67;7.10;;;;;;;13.80;91.32;100310.50;5051640;28;20664;-73
2021/08/18 00:45:42;;;;;;;11.53;6.43;;;;;;;13.79;91.50;100292.72;5035042;28;20219;-74
2021/08/18 00:48:07;;;;;;;13.27;6.73;;;;;;;13.80;91.73;100313.19;5053050;28;20568;-74
2021/08/18 00:50:33;;;;;;;16.53;7.13;;;;;;;13.79;91.25;100295.38;5051687;28;20258;-74
2021/08/18 00:52:58;;;;;;;12.47;6.80;;;;;;;13.76;91.55;100296.47;5051472;28;20245;-74
2021/08/18 00:55:25;;;;;;;13.23;6.87;;;;;;;13.76;91.74;100298.31;5051585;28;20547;-74
2021/08/18 00:57:51;;;;;;;17.10;6.80;;;;;;;13.77;91.51;100308.91;5052686;28;20188;-74
2021/08/18 01:00:18;;;;;;;16.43;6.73;;;;;;;13.77;91.40;100308.06;5034812;28;20194;-74
2021/08/18 01:02:46;;;;;;;12.53;6.37;;;;;;;13.77;90.92;100302.69;5051232;28;20219;-73
2021/08/18 01:05:14;;;;;;;14.27;6.77;;;;;;;13.78;90.30;100301.72;5051426;28;20536;-73
2021/08/18 01:07:39;;;;;;;12.83;6.60;;;;;;;13.78;90.03;100299.03;5051676;28;20180;-74
2021/08/18 01:10:09;;;;;;;14.53;7.00;;;;;;;13.79;90.00;100310.63;5052983;28;20171;-74
2021/08/18 01:12:36;;;;;;;11.40;6.47;;;;;;;13.80;90.01;100309.66;5052640;28;20294;-74
2021/08/18 01:15:03;;;;;;;13.37;6.50;;;;;;;13.76;90.00;100312.56;5038866;28;20171;-73
2021/08/18 01:17:33;;;;;;;11.73;6.53;;;;;;;13.79;89.47;100310.63;5055472;28;20269;-74
2021/08/18 01:20:00;;;;;;;14.53;6.70;;;;;;;13.77;89.44;100308.06;5055434;28;20210;-73
2021/08/18 01:22:26;;;;;;;14.33;6.83;;;;;;;13.74;89.70;100314.47;5055322;28;20200;-73
2021/08/18 01:24:51;;;;;;;16.53;6.60;;;;;;;13.74;90.01;100302.91;5056518;28;20202;-73
2021/08/18 01:27:16;;;;;;;12.03;6.13;;;;;;;13.71;89.79;100292.41;5056572;28;20179;-73
2021/08/18 01:29:42;;;;;;;13.27;6.77;;;;;;;13.70;90.17;100302.28;5055220;28;20211;-73
2021/08/18 01:32:07;;;;;;;14.30;6.63;;;;;;;13.71;90.02;100292.41;5055383;28;20199;-73
2021/08/18 01:34:35;;;;;;;11.80;6.13;;;;;;;13.69;89.61;100315.78;5055055;28;20175;-74
2021/08/18 01:37:00;;;;;;;10.83;6.20;;;;;;;13.69;89.69;100305.06;5055109;28;20654;-72
2021/08/18 01:39:25;;;;;;;14.57;6.10;;;;;;;13.67;89.40;100280.19;5055049;28;20179;-73
2021/08/18 01:41:51;;;;;;;12.53;6.60;;;;;;;13.69;90.21;100283.59;5054842;28;20192;-74
2021/08/18 01:44:16;;;;;;;13.97;6.43;;;;;;;13.68;89.69;100298.84;5055438;28;20195;-73
2021/08/18 01:46:41;;;;;;;13.30;5.93;;;;;;;13.66;89.75;100291.88;5056142;28;20692;-73
2021/08/18 01:49:07;;;;;;;11.83;6.13;;;;;;;13.63;89.96;100319.78;5054789;28;20523;-72
2021/08/18 01:51:32;;;;;;;15.43;6.90;;;;;;;13.62;90.28;100302.00;5056044;28;20679;-73
2021/08/18 01:53:57;;;;;;;14.43;6.37;;;;;;;13.57;90.73;100292.56;5038162;28;20176;-73
2021/08/18 01:56:23;;;;;;;12.60;5.97;;;;;;;13.53;91.42;100293.78;5037996;28;20180;-73
2021/08/18 01:58:51;;;;;;;13.67;6.50;;;;;;;13.47;91.40;100278.16;5054738;28;20179;-72
2021/08/18 02:01:18;;;;;;;13.00;6.33;;;;;;;13.45;91.95;100291.66;5054809;28;20179;-74
2021/08/18 02:03:43;;;;;;;12.53;6.27;;;;;;;13.41;92.21;100301.75;5054607;28;20195;-75
2021/08/18 02:06:09;;;;;;;9.80;5.97;;;;;;;13.40;92.24;100293.81;5037902;28;20184;-73
2021/08/18 02:08:34;;;;;;;13.87;6.70;;;;;;;13.36;93.08;100284.28;5054597;28;20186;-72
2021/08/18 02:10:59;;;;;;;12.43;6.90;;;;;;;13.37;93.25;100283.31;5055729;28;20186;-73
2021/08/18 02:13:25;;;;;;;12.37;6.07;;;;;;;13.35;92.90;100298.63;5054435;28;20196;-73
2021/08/18 02:15:50;;;;;;;14.27;6.60;;;;;;;13.32;93.66;100285.47;5054384;28;20176;-73
2021/08/18 02:18:16;;;;;;;12.03;5.73;;;;;;;13.23;93.94;100284.31;5055579;28;20203;-73
2021/08/18 02:20:43;;;;;;;10.67;6.03;;;;;;;13.17;94.22;100303.53;5054369;28;20635;-73
2021/08/18 02:23:09;;;;;;;14.03;6.20;;;;;;;13.12;94.69;100294.94;5055652;28;20203;-73
2021/08/18 02:25:35;;;;;;;11.40;5.97;;;;;;;13.10;94.88;100304.91;5052874;28;20180;-73
2021/08/18 02:28:00;;;;;;;12.93;6.23;;;;;;;13.09;94.87;100311.22;5037728;28;20206;-72
2021/08/18 02:30:27;;;;;;;11.20;5.47;;;;;;;13.10;94.48;100273.59;5059450;28;20543;-72
2021/08/18 02:32:53;;;;;;;17.77;6.40;;;;;;;13.10;94.96;100286.16;5060708;28;20206;-72
2021/08/18 02:35:19;;;;;;;14.27;5.80;;;;;;;13.09;94.81;100287.13;5063262;28;20202;-72
2021/08/18 02:37:44;;;;;;;9.53;5.83;;;;;;;13.06;95.14;100292.69;5063002;28;20210;-72
2021/08/18 02:40:11;;;;;;;12.63;5.73;;;;;;;13.04;95.35;100292.81;5063175;28;20636;-72
2021/08/18 02:42:37;;;;;;;13.77;6.00;;;;;;;12.99;95.57;100280.69;5054283;28;20699;-74
2021/08/18 02:45:03;;;;;;;13.83;6.00;;;;;;;12.99;95.41;100286.88;5053761;28;20294;-73
2021/08/18 02:47:29;;;;;;;14.73;6.50;;;;;;;12.96;95.80;100273.72;5037036;28;20190;-73
2021/08/18 02:49:54;;;;;;;15.17;7.40;;;;;;;13.00;95.55;100269.84;5053682;28;20560;-73
2021/08/18 02:52:19;;;;;;;14.00;6.10;;;;;;;12.98;95.81;100287.84;5055006;28;20202;-73
2021/08/18 02:54:45;;;;;;;11.33;6.10;;;;;;;13.03;95.77;100284.88;5053593;28;20171;-73
2021/08/18 02:57:10;;;;;;;12.67;5.43;;;;;;;13.01;95.56;100319.81;5053611;28;20171;-72
2021/08/18 02:59:35;;;;;;;13.07;5.70;;;;;;;12.98;95.81;100273.59;5054766;28;20229;-72
2021/08/18 03:02:01;;;;;;;14.47;6.13;;;;;;;13.00;95.74;100290.44;5053431;28;20207;-73
2021/08/18 03:04:26;;;;;;;14.83;7.17;;;;;;;12.96;95.81;100297.84;5053722;28;20218;-73
2021/08/18 03:06:54;;;;;;;11.50;6.10;;;;;;;12.95;95.34;100282.72;5053405;28;20279;-73
2021/08/18 03:09:19;;;;;;;14.90;6.33;;;;;;;12.96;95.01;100295.16;5053365;28;20198;-73
2021/08/18 03:11:44;;;;;;;16.10;6.23;;;;;;;12.93;95.28;100290.00;5036561;28;20688;-73
2021/08/18 03:14:10;;;;;;;16.63;6.40;;;;;;;12.92;95.22;100287.44;5054595;28;20176;-73
2021/08/18 03:16:35;;;;;;;10.33;5.83;;;;;;;12.95;94.85;100279.19;5054992;28;20221;-73
2021/08/18 03:19:00;;;;;;;12.57;5.60;;;;;;;12.95;94.84;100277.38;5053531;28;20629;-72
2021/08/18 03:21:26;;;;;;;13.00;5.83;;;;;;;12.92;95.28;100288.31;5053063;28;20191;-73
2021/08/18 03:23:51;;;;;;;14.50;6.63;;;;;;;12.91;95.40;100291.09;5053363;28;20191;-73
2021/08/18 03:26:16;;;;;;;12.07;6.27;;;;;;;12.92;95.47;100285.63;5053683;28;20183;-74
2021/08/18 03:28:41;;;;;;;12.80;6.13;;;;;;;12.93;95.60;100299.88;5053374;28;20654;-73
2021/08/18 03:31:07;;;;;;;14.83;6.00;;;;;;;12.97;95.01;100302.22;5053539;28;20635;-73
2021/08/18 03:33:32;;;;;;;14.80;6.03;;;;;;;13.05;94.59;100296.34;5053548;28;20168;-72
2021/08/18 03:35:57;;;;;;;13.47;6.20;;;;;;;13.12;94.15;100287.75;5052810;28;20184;-73
2021/08/18 03:38:23;;;;;;;13.60;6.03;;;;;;;13.15;93.88;100295.56;5036430;28;20183;-72
2021/08/18 03:40:52;;;;;;;14.00;6.00;;;;;;;13.19;93.20;100312.31;5054653;28;20188;-72
2021/08/18 03:43:18;;;;;;;11.50;6.23;;;;;;;13.20;92.59;100292.59;5052746;28;20544;-72
2021/08/18 03:45:43;;;;;;;19.57;10.17;;;;;;;13.26;92.80;100288.59;5052864;28;20238;-73
2021/08/18 03:48:08;;;;;;;14.23;6.20;;;;;;;13.23;92.57;100300.41;5052941;28;20175;-72
2021/08/18 03:50:34;;;;;;;12.17;5.43;;;;;;;13.23;92.90;100292.34;5052552;28;20237;-73
2021/08/18 03:52:59;;;;;;;11.37;5.40;;;;;;;13.21;92.44;100291.63;5053895;28;20280;-72
2021/08/18 03:55:24;;;;;;;13.93;6.13;;;;;;;13.21;92.51;100301.47;5053692;28;20640;-73
2021/08/18 03:57:49;;;;;;;11.57;5.80;;;;;;;13.21;92.48;100305.00;5052369;28;20182;-72
2021/08/18 04:00:15;;;;;;;14.03;6.20;;;;;;;13.19;92.90;100298.06;5053872;28;20183;-72
2021/08/18 04:02:41;;;;;;;10.67;5.50;;;;;;;13.21;93.20;100310.38;5065863;22;20215;-75
2021/08/18 04:05:07;;;;;;;11.30;5.80;;;;;;;13.29;92.59;100315.16;5036470;28;20727;-74
2021/08/18 04:07:32;;;;;;;14.97;6.20;;;;;;;13.33;92.53;100300.56;5052882;28;20707;-73
2021/08/18 04:09:58;;;;;;;11.70;5.67;;;;;;;13.35;92.42;100301.31;5053937;28;20183;-74
2021/08/18 04:12:23;;;;;;;14.33;5.67;;;;;;;13.35;92.20;100306.69;5054047;28;20675;-75
2021/08/18 04:14:48;;;;;;;12.90;6.10;;;;;;;13.39;92.15;100303.69;5052690;28;20175;-75
2021/08/18 04:17:14;;;;;;;13.47;5.20;;;;;;;13.39;92.29;100313.56;5036836;28;20178;-76
2021/08/18 04:19:39;;;;;;;11.43;6.10;;;;;;;13.38;92.74;100319.84;5053000;28;20175;-75
2021/08/18 04:22:05;;;;;;;11.00;5.60;;;;;;;13.35;92.82;100307.53;5053026;28;20195;-76
2021/08/18 04:24:30;;;;;;;12.57;5.50;;;;;;;13.36;92.44;100333.38;5052890;28;20256;-75
2021/08/18 04:26:56;;;;;;;12.50;6.00;;;;;;;13.37;93.04;100310.09;5053947;28;20651;-75
2021/08/18 04:29:21;;;;;;;9.47;5.63;;;;;;;13.36;93.20;100316.44;5052612;28;20529;-76
2021/08/18 04:31:46;;;;;;;12.70;5.50;;;;;;;13.36;93.27;100319.97;5035796;28;20179;-75
2021/08/18 04:34:12;;;;;;;10.30;5.87;;;;;;;13.42;92.78;100318.69;5053370;28;20179;-75
2021/08/18 04:36:37;;;;;;;9.80;6.23;;;;;;;13.40;92.95;100324.16;5052749;28;20186;-74
2021/08/18 04:39:02;;;;;;;10.33;5.23;;;;;;;13.41;93.26;100319.66;5036037;28;20183;-74
2021/08/18 04:41:28;;;;;;;10.37;5.70;;;;;;;13.40;93.18;100340.25;5052330;28;20175;-75
2021/08/18 04:43:53;;;;;;;11.03;5.73;;;;;;;13.41;93.20;100320.53;5035341;28;20303;-74
2021/08/18 04:46:18;;;;;;;10.60;6.07;;;;;;;13.46;93.04;100322.88;5053655;28;20539;-76
2021/08/18 04:48:43;;;;;;;12.23;5.70;;;;;;;13.50;92.75;100324.34;5034693;28;20215;-74
2021/08/18 04:51:09;;;;;;;10.67;5.70;;;;;;;13.50;92.90;100320.81;5035698;28;20183;-74
2021/08/18 04:53:35;;;;;;;11.23;5.90;;;;;;;13.52;92.90;100324.22;5052110;28;20191;-75
2021/08/18 04:56:00;;;;;;;12.27;6.03;;;;;;;13.56;93.10;100329.25;5053281;28;20175;-75
2021/08/18 04:58:25;;;;;;;13.77;6.07;;;;;;;13.54;93.22;100324.97;5035560;28;20179;-76
2021/08/18 05:00:51;;;;;;;11.90;5.97;;;;;;;13.56;93.36;100318.53;5052325;28;20626;-76
2021/08/18 05:03:16;;;;;;;9.23;5.30;;;;;;;13.63;92.67;100326.97;5051873;28;20211;-76
2021/08/18 05:05:41;;;;;;;10.70;5.60;;;;;;;13.64;92.87;100326.84;5035624;28;20221;-75
2021/08/18 05:08:07;;;;;;;10.23;5.60;;;;;;;13.69;92.74;100338.09;5035213;28;20245;-72
2021/08/18 05:10:33;;;;;;;10.23;5.57;;;;;;;13.76;92.12;100325.13;5035633;28;20183;-74
2021/08/18 05:12:59;;;;;;;12.40;5.90;;;;;;;13.79;92.20;100330.25;5035370;28;20195;-74
2021/08/18 05:15:24;;;;;;;15.77;6.10;;;;;;;13.83;92.13;100330.88;5052194;28;20182;-75
2021/08/18 05:17:50;;;;;;;10.63;5.90;;;;;;;13.83;92.01;100339.78;5051863;28;20237;-75
2021/08/18 05:20:15;;;;;;;9.30;5.53;;;;;;;13.82;91.99;100337.22;5035429;28;20179;-76
2021/08/18 05:22:40;;;;;;;10.03;5.53;;;;;;;13.81;91.97;100336.38;5052207;28;20659;-75
2021/08/18 05:25:07;;;;;;;14.00;5.87;;;;;;;13.91;91.88;100315.91;5051648;28;20191;-74
2021/08/18 05:27:32;;;;;;;10.57;5.40;;;;;;;13.84;91.84;100324.53;5035068;28;20187;-75
2021/08/18 05:29:57;;;;;;;10.27;6.27;;;;;;;13.95;92.01;100317.41;5051731;28;20268;-74
2021/08/18 05:32:23;;;;;;;10.33;5.40;;;;;;;13.97;91.69;100318.13;5052126;28;20195;-73
2021/08/18 05:34:48;;;;;;;12.37;5.30;;;;;;;13.96;91.55;100327.16;5053354;28;20183;-74
2021/08/18 05:37:13;;;;;;;11.00;5.43;;;;;;;13.95;91.75;100324.59;5052237;28;20183;-73
2021/08/18 05:39:38;;;;;;;11.43;6.10;;;;;;;13.94;91.89;100322.88;5053403;28;20180;-75
2021/08/18 05:42:04;;;;;;;10.67;5.80;;;;;;;13.98;92.01;100313.63;5034938;28;20210;-74
2021/08/18 05:44:29;;;;;;;12.77;5.93;;;;;;;13.95;92.13;100312.03;5034836;28;20203;-75
2021/08/18 05:46:54;;;;;;;11.97;5.10;;;;;;;13.99;91.93;100309.97;5034889;28;20187;-74
2021/08/18 05:49:20;;;;;;;12.43;5.40;;;;;;;14.00;91.75;100317.91;5051590;28;20281;-75
2021/08/18 05:51:47;;;;;;;11.53;5.30;;;;;;;14.03;91.42;100309.63;5035038;28;20187;-75
2021/08/18 05:54:12;;;;;;;11.30;5.43;;;;;;;14.01;91.20;100332.19;5052702;28;20211;-76
2021/08/18 05:56:37;;;;;;;11.77;5.50;;;;;;;14.06;91.16;100313.91;5051628;28;20238;-73
2021/08/18 05:59:03;;;;;;;7.90;4.97;;;;;;;14.09;90.83;100309.16;5052473;28;20215;-74
2021/08/18 06:01:28;;;;;;;10.93;5.17;;;;;;;14.17;90.31;100303.22;5055482;28;20242;-74
2021/08/18 06:03:53;;;;;;;9.57;5.27;;;;;;;14.21;89.75;100319.97;5038363;28;20211;-74
2021/08/18 06:06:19;;;;;;;14.10;5.73;;;;;;;14.18;90.19;100323.72;5056373;28;20555;-74
2021/08/18 06:08:45;;;;;;;9.10;4.43;;;;;;;14.16;89.93;100330.19;5038683;28;20262;-75
2021/08/18 06:11:10;;;;;;;8.70;5.13;;;;;;;14.21;89.82;100320.81;5054973;28;20179;-75
2021/08/18 06:13:35;;;;;;;13.97;5.40;;;;;;;14.23;89.28;100312.63;5056324;28;20199;-74
2021/08/18 06:16:01;;;;;;;12.60;5.03;;;;;;;14.32;89.20;100322.66;5056194;28;20225;-74
2021/08/18 06:18:26;;;;;;;8.47;5.70;;;;;;;14.43;88.44;100311.97;5038239;28;20199;-74
2021/08/18 06:20:51;;;;;;;8.40;4.50;;;;;;;14.36;87.61;100334.88;5054985;28;20245;-75
2021/08/18 06:23:20;;;;;;;7.97;5.10;;;;;;;14.37;88.05;100318.66;5054563;28;20198;-75
2021/08/18 06:25:46;;;;;;;9.43;5.50;;;;;;;14.40;87.69;100307.69;5038634;28;20207;-74
2021/08/18 06:28:11;;;;;;;8.63;5.23;;;;;;;14.40;87.34;100313.03;5054604;28;20218;-74
2021/08/18 06:30:36;;;;;;;7.90;4.67;;;;;;;14.55;87.25;100307.53;5054582;28;20539;-74
2021/08/18 06:33:02;;;;;;;6.57;4.27;;;;;;;14.46;85.60;100314.44;5054481;28;20214;-74
2021/08/18 06:35:27;;;;;;;8.13;4.37;;;;;;;14.43;85.03;100329.91;5054224;28;20183;-75
2021/08/18 06:37:52;;;;;;;9.23;5.17;;;;;;;14.40;86.03;100317.56;5054197;28;20195;-74
2021/08/18 06:40:18;;;;;;;9.03;5.10;;;;;;;14.50;86.13;100317.75;5054423;28;20179;-76
2021/08/18 06:42:44;;;;;;;10.57;5.57;;;;;;;14.48;85.88;100309.78;5054349;28;20202;-74
2021/08/18 06:45:11;;;;;;;10.63;4.93;;;;;;;14.59;85.81;100314.34;5037725;28;20207;-74
2021/08/18 06:47:36;;;;;;;8.93;4.60;;;;;;;14.63;84.41;100329.25;5054070;28;20172;-74
2021/08/18 06:50:03;;;;;;;7.77;4.33;;;;;;;14.54;85.20;100329.97;5054218;28;20237;-74
2021/08/18 06:52:30;;;;;;;7.97;4.43;;;;;;;14.52;85.49;100332.78;5037821;28;20672;-75
2021/08/18 06:54:55;;;;;;;7.90;4.67;;;;;;;14.56;85.79;100336.94;5053905;28;20173;-75
2021/08/18 06:57:20;;;;;;;6.70;4.63;;;;;;;14.58;86.18;100318.03;5053899;28;20543;-75
2021/08/18 06:59:46;;;;;;;11.83;4.97;;;;;;;14.68;85.37;100300.19;5054091;28;20179;-75
2021/08/18 07:02:11;;;;;;;7.17;4.20;;;;;;;14.69;84.58;100329.63;5037240;28;20221;-75
2021/08/18 07:04:36;;;;;;;7.77;4.80;;;;;;;14.78;85.17;100311.94;5055270;28;20206;-74
2021/08/18 07:07:02;;;;;;;13.07;5.07;;;;;;;14.94;84.80;100315.13;5053665;28;20210;-75
2021/08/18 07:09:27;;;;;;;10.00;5.37;;;;;;;15.23;83.78;100328.91;5037110;28;20544;-75
2021/08/18 07:11:53;;;;;;;9.17;4.87;;;;;;;15.51;82.53;100332.94;5036413;28;20198;-75
2021/08/18 07:14:18;;;;;;;10.43;5.17;;;;;;;15.53;82.22;100330.97;5037354;28;20171;-75
2021/08/18 07:16:44;;;;;;;10.87;4.80;;;;;;;15.54;81.23;100337.19;5054164;28;20639;-74
2021/08/18 07:19:09;;;;;;;6.50;4.47;;;;;;;15.43;80.99;100330.00;5036865;28;20179;-75
2021/08/18 07:21:34;;;;;;;11.70;5.07;;;;;;;15.48;80.92;100319.75;5036954;28;20172;-74
2021/08/18 07:24:00;;;;;;;9.00;5.13;;;;;;;15.61;81.00;100357.31;5053936;28;20195;-74
2021/08/18 07:26:26;;;;;;;10.57;5.40;;;;;;;15.62;81.68;100316.81;5036900;28;20178;-74
2021/08/18 07:28:52;;;;;;;7.43;4.40;;;;;;;15.63;81.28;100323.91;5053546;28;20551;-73
2021/08/18 07:31:17;;;;;;;6.77;4.27;;;;;;;15.55;80.81;100333.53;5053301;28;20235;-75
2021/08/18 07:33:43;;;;;;;10.20;5.00;;;;;;;15.68;79.95;100323.53;5036408;28;20230;-75
2021/08/18 07:36:08;;;;;;;8.50;4.63;;;;;;;15.75;79.39;100353.47;5054452;28;20199;-75
2021/08/18 07:38:33;;;;;;;8.20;4.80;;;;;;;15.70;79.35;100331.47;5036727;28;20175;-74
2021/08/18 07:40:59;;;;;;;11.40;4.80;;;;;;;15.87;79.08;100334.47;5036529;28;20180;-74
2021/08/18 07:43:24;;;;;;;7.17;4.70;;;;;;;15.72;79.15;100341.13;5052859;28;20207;-75
2021/08/18 07:45:49;;;;;;;9.30;4.90;;;;;;;15.63;78.62;100333.81;5036453;28;20213;-74
2021/08/18 07:48:15;;;;;;;6.27;4.43;;;;;;;15.52;79.01;100341.84;5053867;28;20199;-75
2021/08/18 07:50:40;;;;;;;8.00;4.17;;;;;;;15.71;78.49;100334.03;5054330;28;20178;-75
2021/08/18 07:53:06;;;;;;;7.63;4.33;;;;;;;15.85;78.39;100324.81;5054916;28;20187;-75
2021/08/18 07:55:31;;;;;;;8.17;4.33;;;;;;;15.91;77.96;100346.69;5038253;28;20667;-76
2021/08/18 07:57:56;;;;;;;8.73;4.60;;;;;;;15.81;78.56;100336.81;5055718;28;20233;-76
2021/08/18 08:00:22;;;;;;;5.90;3.73;;;;;;;15.89;77.91;100331.66;5052732;28;20224;-75
2021/08/18 08:02:47;;;;;;;9.40;4.10;;;;;;;15.86;77.35;100348.91;5052679;28;20214;-75
2021/08/18 08:05:14;;;;;;;8.13;4.07;;;;;;;15.89;77.55;100339.72;5054315;28;20200;-74
2021/08/18 08:07:40;;;;;;;6.57;4.10;;;;;;;16.14;77.33;100335.84;5052887;28;20267;-76
2021/08/18 08:10:06;;;;;;;10.07;3.80;;;;;;;16.26;77.58;100351.81;5053247;28;20207;-74
2021/08/18 08:12:32;;;;;;;8.57;4.23;;;;;;;16.32;77.06;100342.38;5036688;28;20199;-75
2021/08/18 08:14:58;;;;;;;7.97;4.77;;;;;;;16.23;77.08;100349.41;5052623;28;20259;-74
2021/08/18 08:17:23;;;;;;;8.00;4.70;;;;;;;16.02;78.02;100347.66;5053676;28;20250;-75
2021/08/18 08:19:49;;;;;;;5.77;3.93;;;;;;;16.01;78.98;100340.56;5035721;28;20588;-74
2021/08/18 08:22:14;;;;;;;9.23;4.73;;;;;;;16.10;77.75;100326.34;5052560;28;20188;-75
2021/08/18 08:24:39;;;;;;;7.67;4.57;;;;;;;16.10;78.19;100354.09;5035726;28;20684;-74
2021/08/18 08:27:05;;;;;;;6.77;4.50;;;;;;;15.95;78.05;100339.22;5052490;28;20207;-74
2021/08/18 08:29:30;;;;;;;7.77;4.33;;;;;;;16.27;78.65;100333.84;5052429;28;20168;-75
2021/08/18 08:31:55;;;;;;;7.70;4.40;;;;;;;16.68;76.74;100324.09;5052201;28;20252;-75
2021/08/18 08:34:22;;;;;;;9.57;3.90;;;;;;;16.63;76.20;100323.59;5052487;28;20548;-74
2021/08/18 08:36:47;;;;;;;8.30;4.77;;;;;;;16.78;76.07;100350.13;5035899;28;20179;-74
2021/08/18 08:39:13;;;;;;;6.90;4.07;;;;;;;16.49;76.09;100333.72;5035529;28;20176;-74
2021/08/18 08:41:38;;;;;;;7.67;3.93;;;;;;;16.41;76.58;100340.75;5035603;28;20175;-73
2021/08/18 08:44:04;;;;;;;7.40;3.97;;;;;;;16.42;76.93;100331.69;5035497;28;20203;-74
2021/08/18 08:46:30;;;;;;;9.47;3.97;;;;;;;16.42;76.31;100337.09;5035588;28;20549;-75
2021/08/18 08:48:56;;;;;;;9.37;4.20;;;;;;;16.35;77.30;100346.66;5052470;28;20282;-74
2021/08/18 08:51:21;;;;;;;4.87;3.87;;;;;;;16.23;77.45;100335.06;5035590;28;20179;-74
2021/08/18 08:53:46;;;;;;;6.63;3.93;;;;;;;16.22;77.66;100333.38;5051669;28;20195;-73
2021/08/18 08:56:12;;;;;;;5.27;3.80;;;;;;;16.26;76.88;100332.97;5052371;28;20186;-74
2021/08/18 08:58:37;;;;;;;4.87;3.50;;;;;;;16.39;76.55;100335.50;5052033;28;20540;-73
2021/08/18 09:01:03;;;;;;;5.47;3.70;;;;;;;16.38;75.94;100327.56;5035631;28;20268;-75
2021/08/18 09:03:28;;;;;;;5.50;3.80;;;;;;;16.52;75.44;100327.22;5035576;28;20219;-74
2021/08/18 09:05:58;;;;;;;7.57;4.00;;;;;;;16.87;74.28;100325.06;5056371;28;20171;-75
2021/08/18 09:08:23;;;;;;;6.57;3.17;;;;;;;16.73;74.30;100330.81;5035254;28;20186;-74
2021/08/18 09:11:09;;;;;;;4.97;3.43;;;;;;;16.90;73.75;100307.78;5052239;28;20187;-74
2021/08/18 09:13:48;;;;;;;7.07;3.77;;;;;;;16.96;73.71;100318.00;5036070;28;20293;-74
2021/08/18 09:16:15;;;;;;;6.33;3.77;;;;;;;16.78;74.16;100316.94;5053765;28;20156;-74
2021/08/18 09:18:46;;;;;;;7.23;3.33;;;;;;;16.75;73.84;100319.91;5051752;28;20175;-74
2021/08/18 09:21:34;;;;;;;5.67;3.10;;;;;;;16.71;74.76;100313.91;5035358;28;20186;-74
2021/08/18 09:24:12;;;;;;;5.87;3.33;;;;;;;16.86;73.95;100328.75;5035494;28;20203;-75
2021/08/18 09:26:42;;;;;;;6.27;3.43;;;;;;;16.98;74.64;100326.81;5052776;28;20178;-74
2021/08/18 09:29:08;;;;;;;7.33;4.20;;;;;;;16.70;74.44;100328.34;5034972;28;20582;-75
2021/08/18 09:31:33;;;;;;;7.27;3.23;;;;;;;16.70;75.05;100311.34;5051862;28;20171;-75
2021/08/18 09:33:58;;;;;;;4.60;2.87;;;;;;;16.43;75.66;100358.50;5035546;28;20185;-73
2021/08/18 09:36:29;;;;;;;6.00;3.10;;;;;;;16.66;74.92;100316.13;5055897;28;20172;-74
2021/08/18 09:39:32;;;;;;;3.87;3.00;;;;;;;16.72;74.86;100321.00;5055519;28;20179;-75
2021/08/18 09:41:57;;;;;;;5.47;2.70;;;;;;;16.88;74.40;100324.09;5055736;28;20662;-74
2021/08/18 09:44:22;;;;;;;3.77;2.73;;;;;;;17.02;73.56;100322.00;5055622;28;20195;-75
2021/08/18 09:47:06;;;;;;;5.97;2.90;;;;;;;16.85;73.77;100312.72;5038645;28;20214;-75
2021/08/18 09:49:32;;;;;;;5.63;2.90;;;;;;;16.98;74.28;100304.41;5038783;28;20176;-74
2021/08/18 09:51:58;;;;;;;4.93;2.80;;;;;;;16.92;74.71;100300.41;5038762;28;20220;-74
2021/08/18 09:54:35;;;;;;;5.27;2.90;;;;;;;16.73;75.07;100289.53;5056153;28;20584;-74
2021/08/18 09:57:06;;;;;;;6.40;2.70;;;;;;;16.58;74.76;100287.13;5055204;28;20635;-74
2021/08/18 09:59:31;;;;;;;4.07;2.70;;;;;;;16.52;75.57;100303.84;5055080;28;20617;-74
2021/08/18 10:04:22;;;;;;;5.35;2.50;;;;;;;16.49;76.21;100303.25;5072599;22;20707;-74
2021/08/18 10:06:47;;;;;;;4.83;2.60;;;;;;;16.59;76.06;100288.00;5056389;28;20175;-73
2021/08/18 10:09:12;;;;;;;6.40;2.90;;;;;;;16.62;76.26;100311.13;5055041;28;20176;-72
2021/08/18 10:11:38;;;;;;;4.40;2.77;;;;;;;16.58;77.08;100299.75;5056126;28;20725;-73
2021/08/18 10:14:03;;;;;;;3.00;2.70;;;;;;;16.55;77.72;100303.56;5056005;28;20222;-73
2021/08/18 10:16:31;;;;;;;3.43;2.50;;;;;;;16.32;78.33;100285.81;5057569;28;20363;-73
2021/08/18 10:19:03;;;;;;;6.23;2.50;;;;;;;16.47;78.02;100295.31;5057163;28;20225;-74
2021/08/18 10:21:33;;;;;;;4.30;2.50;;;;;;;16.77;77.09;100307.16;5058593;28;20159;-73
2021/08/18 10:24:06;;;;;;;2.70;2.40;;;;;;;16.98;76.35;100294.47;5045530;28;20230;-72
2021/08/18 10:26:32;;;;;;;3.90;2.73;;;;;;;16.63;76.82;100289.44;5064051;28;20194;-72
2021/08/18 10:29:22;;;;;;;4.07;2.50;;;;;;;16.49;78.05;100298.72;5054545;28;20179;-72
2021/08/18 10:31:47;;;;;;;4.83;2.57;;;;;;;16.57;78.22;100304.28;5055887;28;20234;-71
2021/08/18 10:34:21;;;;;;;3.40;2.37;;;;;;;16.68;78.64;100313.31;5055939;28;20192;-72
2021/08/18 10:36:48;;;;;;;6.77;2.40;;;;;;;16.19;81.33;100307.56;5055724;28;20214;-74
2021/08/18 10:39:19;;;;;;;5.40;2.67;;;;;;;15.54;87.34;100323.75;5056308;28;20179;-74
2021/08/18 10:42:15;;;;;;;5.00;2.83;;;;;;;14.85;94.19;100317.66;5054791;28;20229;-73
2021/08/18 10:44:41;;;;;;;9.57;3.37;;;;;;;14.58;97.80;100332.31;5045780;28;20203;-72
2021/08/18 10:47:17;;;;;;;3.97;3.53;;;;;;;14.32;100.00;100330.72;5052964;28;20183;-72
2021/08/18 10:49:47;;;;;;;5.73;4.17;;;;;;;14.16;100.00;100341.78;5055342;28;20175;-73
2021/08/18 10:52:33;;;;;;;5.70;4.10;;;;;;;13.94;100.00;100336.28;5054066;28;20193;-74
2021/08/18 10:55:14;;;;;;;5.57;4.43;;;;;;;13.84;100.00;100330.78;5055172;28;20168;-74
2021/08/18 10:57:50;;;;;;;5.07;3.60;;;;;;;13.89;100.00;100327.75;5054055;28;20172;-75
2021/08/18 11:00:18;;;;;;;6.13;4.23;;;;;;;13.92;100.00;100312.25;5055001;28;20192;-75
2021/08/18 11:03:07;;;;;;;5.87;3.93;;;;;;;13.88;100.00;100308.09;5054737;28;20210;-75
2021/08/18 11:05:38;;;;;;;5.63;4.17;;;;;;;13.98;100.00;100317.16;5055052;28;20176;-72
2021/08/18 11:08:19;;;;;;;5.03;3.70;;;;;;;14.07;100.00;100313.78;5054941;28;20206;-74
2021/08/18 11:10:51;;;;;;;5.20;4.13;;;;;;;14.27;100.00;100319.47;5053424;28;20164;-74
2021/08/18 11:13:18;;;;;;;8.33;4.30;;;;;;;14.33;100.00;100322.53;5053150;28;20195;-73
2021/08/18 11:15:43;;;;;;;5.50;4.00;;;;;;;14.29;100.00;100314.84;5053237;28;20599;-74
2021/08/18 11:18:09;;;;;;;7.03;4.23;;;;;;;14.38;100.00;100308.78;5054635;28;20250;-74
2021/08/18 11:20:34;;;;;;;7.07;4.10;;;;;;;14.37;100.00;100324.03;5053484;28;20172;-74